createdAt,value
2018-12-23T00:00:18.934Z,17.40
2018-12-23T00:02:47.217Z,17.83
2018-12-23T00:05:15.511Z,17.97
2018-12-23T00:07:43.851Z,16.43
2018-12-23T00:10:12.138Z,14.03
2018-12-23T00:12:40.424Z,10.87
2018-12-23T00:15:09.178Z,11.37
2018-12-23T00:17:37.636Z,11.87
2018-12-23T00:20:09.782Z,10.70
2018-12-23T00:22:38.125Z,11.77
2018-12-23T00:25:06.782Z,12.83
2018-12-23T00:27:35.211Z,9.30
2018-12-23T00:30:03.750Z,13.77
2018-12-23T00:32:32.889Z,23.50
2018-12-23T00:35:01.343Z,24.47
2018-12-23T00:37:30.447Z,22.77
2018-12-23T00:39:58.744Z,23.07
2018-12-23T00:42:27.348Z,22.43
2018-12-23T00:44:55.951Z,32.13
2018-12-23T00:47:24.257Z,28.90
2018-12-23T00:49:52.806Z,29.53
2018-12-23T00:52:21.101Z,36.63
2018-12-23T00:54:49.558Z,35.03
2018-12-23T00:57:19.312Z,34.23
2018-12-23T00:59:47.956Z,37.63
2018-12-23T01:02:16.658Z,29.37
2018-12-23T01:04:45.149Z,33.10
2018-12-23T01:07:13.575Z,31.67
2018-12-23T01:09:42.275Z,26.50
2018-12-23T01:12:10.752Z,35.00
2018-12-23T01:14:39.170Z,33.93
2018-12-23T01:17:07.552Z,31.20
2018-12-23T01:19:36.021Z,30.27
2018-12-23T01:22:04.401Z,28.20
2018-12-23T01:24:32.732Z,26.97
2018-12-23T01:27:01.082Z,24.00
2018-12-23T01:29:29.407Z,26.77
2018-12-23T01:31:57.697Z,31.57
2018-12-23T01:34:26.016Z,32.57
2018-12-23T01:36:54.312Z,29.87
2018-12-23T01:39:22.833Z,23.90
2018-12-23T01:41:51.494Z,19.97
2018-12-23T01:44:19.943Z,25.10
2018-12-23T01:46:49.195Z,26.40
2018-12-23T01:49:17.561Z,22.27
2018-12-23T01:51:45.992Z,24.20
2018-12-23T01:54:14.523Z,20.17
2018-12-23T01:56:42.839Z,30.23
2018-12-23T01:59:16.745Z,25.63
2018-12-23T02:01:47.988Z,23.53
2018-12-23T02:04:18.997Z,30.10
2018-12-23T02:06:47.622Z,31.37
2018-12-23T02:09:16.069Z,25.63
2018-12-23T02:11:44.613Z,26.90
2018-12-23T02:14:12.979Z,32.77
2018-12-23T02:16:41.611Z,24.87
2018-12-23T02:19:09.950Z,26.43
2018-12-23T02:21:39.086Z,32.93
2018-12-23T02:24:07.514Z,29.47
2018-12-23T02:26:36.419Z,27.83
2018-12-23T02:29:04.796Z,29.53
2018-12-23T02:31:33.381Z,35.23
2018-12-23T02:34:01.816Z,30.53
2018-12-23T02:36:30.140Z,35.67
2018-12-23T02:38:58.727Z,31.60
2018-12-23T02:41:31.652Z,32.50
2018-12-23T02:43:57.835Z,39.00
2018-12-23T02:46:26.347Z,38.27
2018-12-23T02:48:54.870Z,37.53
2018-12-23T02:51:23.814Z,33.33
2018-12-23T02:53:52.158Z,31.90
2018-12-23T02:56:20.659Z,35.07
2018-12-23T02:58:49.099Z,38.40
2018-12-23T03:01:17.923Z,38.80
2018-12-23T03:03:46.350Z,38.70
2018-12-23T03:06:14.653Z,27.27
2018-12-23T03:08:42.992Z,40.03
2018-12-23T03:11:11.596Z,39.47
2018-12-23T03:13:39.941Z,29.43
2018-12-23T03:16:08.327Z,37.70
2018-12-23T03:18:36.671Z,30.63
2018-12-23T03:21:05.102Z,35.57
2018-12-23T03:23:33.551Z,36.80
2018-12-23T03:26:01.989Z,37.57
2018-12-23T03:28:30.399Z,37.73
2018-12-23T03:30:58.713Z,36.83
2018-12-23T03:33:27.583Z,30.20
2018-12-23T03:35:56.072Z,28.30
2018-12-23T03:38:24.514Z,33.80
2018-12-23T03:40:52.838Z,29.87
2018-12-23T03:43:21.225Z,41.60
2018-12-23T03:45:50.183Z,29.63
2018-12-23T03:48:18.628Z,28.50
2018-12-23T03:50:47.610Z,29.97
2018-12-23T03:53:16.038Z,38.70
2018-12-23T03:55:44.412Z,30.37
2018-12-23T03:58:12.853Z,31.40
2018-12-23T04:00:41.440Z,32.77
2018-12-23T04:03:09.884Z,27.90
2018-12-23T04:05:38.517Z,33.30
2018-12-23T04:08:06.991Z,35.43
2018-12-23T04:10:35.371Z,42.57
2018-12-23T04:13:03.709Z,40.67
2018-12-23T04:15:32.117Z,31.33
2018-12-23T04:18:00.398Z,33.57
2018-12-23T04:20:29.009Z,31.03
2018-12-23T04:22:57.301Z,31.20
2018-12-23T04:25:25.608Z,31.53
2018-12-23T04:27:54.167Z,31.60
2018-12-23T04:30:22.480Z,30.90
2018-12-23T04:32:50.775Z,31.27
2018-12-23T04:35:19.082Z,29.03
2018-12-23T04:37:47.390Z,31.50
2018-12-23T04:40:15.778Z,42.43
2018-12-23T04:42:44.159Z,31.20
2018-12-23T04:45:12.827Z,27.00
2018-12-23T04:47:41.240Z,34.00
2018-12-23T04:50:10.164Z,38.13
2018-12-23T04:52:38.673Z,33.00
2018-12-23T04:55:07.083Z,34.03
2018-12-23T04:57:35.371Z,39.43
2018-12-23T05:00:04.703Z,34.97
2018-12-23T05:02:33.149Z,28.73
2018-12-23T05:05:01.723Z,32.80
2018-12-23T05:07:30.199Z,37.10
2018-12-23T05:09:58.633Z,37.70
2018-12-23T05:12:27.147Z,30.87
2018-12-23T05:14:55.579Z,37.37
2018-12-23T05:17:24.012Z,32.23
2018-12-23T05:19:52.388Z,38.93
2018-12-23T05:22:20.773Z,30.73
2018-12-23T05:24:49.772Z,38.87
2018-12-23T05:27:18.102Z,39.90
2018-12-23T05:29:46.388Z,37.93
2018-12-23T05:32:14.724Z,38.17
2018-12-23T05:34:43.076Z,31.77
2018-12-23T05:37:11.917Z,35.47
2018-12-23T05:39:40.386Z,37.70
2018-12-23T05:42:08.835Z,31.40
2018-12-23T05:44:37.576Z,36.67
2018-12-23T05:47:06.026Z,40.07
2018-12-23T05:49:34.344Z,37.50
2018-12-23T05:52:02.667Z,40.30
2018-12-23T05:54:31.548Z,39.00
2018-12-23T05:56:59.918Z,39.20
2018-12-23T05:59:28.239Z,31.53
2018-12-23T06:01:56.523Z,39.43
2018-12-23T06:04:24.822Z,37.07
2018-12-23T06:07:00.873Z,35.83
2018-12-23T06:09:24.186Z,36.10
2018-12-23T06:11:52.568Z,42.33
2018-12-23T06:14:20.885Z,39.50
2018-12-23T06:16:49.239Z,47.70
2018-12-23T06:19:17.619Z,45.80
2018-12-23T06:21:46.282Z,44.63
2018-12-23T06:24:14.612Z,49.47
2018-12-23T06:26:42.933Z,43.67
2018-12-23T06:29:12.022Z,45.97
2018-12-23T06:31:40.740Z,51.13
2018-12-23T06:34:09.054Z,43.33
2018-12-23T06:36:37.771Z,50.40
2018-12-23T06:39:06.557Z,51.07
2018-12-23T06:41:35.056Z,49.57
2018-12-23T06:44:03.442Z,55.33
2018-12-23T06:46:31.827Z,49.07
2018-12-23T06:49:00.897Z,57.47
2018-12-23T06:51:29.334Z,56.10
2018-12-23T06:53:57.649Z,55.30
2018-12-23T06:56:26.152Z,56.57
2018-12-23T06:58:54.628Z,51.97
2018-12-23T07:01:23.282Z,55.00
2018-12-23T07:03:52.284Z,56.90
2018-12-23T07:06:20.703Z,55.30
2018-12-23T07:08:48.984Z,57.37
2018-12-23T07:11:18.122Z,54.43
2018-12-23T07:13:46.667Z,61.80
2018-12-23T07:16:15.130Z,60.57
2018-12-23T07:18:43.652Z,61.93
2018-12-23T07:21:12.099Z,61.77
2018-12-23T07:23:40.401Z,53.53
2018-12-23T07:26:08.878Z,60.30
2018-12-23T07:28:37.256Z,60.50
2018-12-23T07:31:05.858Z,58.73
2018-12-23T07:33:34.208Z,65.17
2018-12-23T07:36:02.657Z,63.03
2018-12-23T07:38:31.179Z,58.87
2018-12-23T07:40:59.882Z,56.73
2018-12-23T07:43:28.347Z,56.27
2018-12-23T07:45:56.738Z,54.10
2018-12-23T07:48:25.543Z,57.53
2018-12-23T07:50:53.912Z,62.73
2018-12-23T07:53:22.365Z,66.70
2018-12-23T07:55:50.803Z,57.50
2018-12-23T07:58:19.344Z,59.33
2018-12-23T08:00:48.003Z,52.27
2018-12-23T08:03:16.289Z,53.50
2018-12-23T08:05:44.600Z,53.67
2018-12-23T08:08:12.967Z,58.53
2018-12-23T08:10:41.286Z,57.93
2018-12-23T08:13:09.605Z,50.30
2018-12-23T08:15:38.125Z,57.70
2018-12-23T08:18:10.611Z,48.47
2018-12-23T08:20:39.522Z,56.03
2018-12-23T08:23:07.952Z,60.63
2018-12-23T08:25:36.245Z,53.03
2018-12-23T08:28:05.370Z,48.60
2018-12-23T08:30:33.656Z,48.47
2018-12-23T08:33:01.974Z,48.63
2018-12-23T08:35:30.265Z,49.53
2018-12-23T08:37:58.602Z,51.10
2018-12-23T08:40:26.910Z,42.77
2018-12-23T08:42:55.453Z,53.93
2018-12-23T08:45:23.915Z,47.53
2018-12-23T08:47:52.472Z,50.60
2018-12-23T08:50:21.581Z,53.27
2018-12-23T08:52:50.638Z,50.73
2018-12-23T08:55:19.129Z,51.23
2018-12-23T08:57:47.425Z,52.53
2018-12-23T09:00:15.764Z,52.20
2018-12-23T09:02:44.095Z,52.53
2018-12-23T09:05:12.987Z,48.40
2018-12-23T09:07:41.706Z,50.40
2018-12-23T09:10:10.152Z,46.53
2018-12-23T09:12:38.627Z,43.77
2018-12-23T09:15:07.125Z,45.70
2018-12-23T09:17:36.164Z,50.40
2018-12-23T09:20:05.330Z,55.13
2018-12-23T09:22:33.660Z,54.33
2018-12-23T09:25:02.127Z,44.23
2018-12-23T09:27:31.227Z,52.57
2018-12-23T09:29:59.500Z,54.57
2018-12-23T09:32:27.892Z,51.73
2018-12-23T09:34:56.179Z,54.87
2018-12-23T09:37:25.244Z,55.07
2018-12-23T09:39:53.697Z,50.13
2018-12-23T09:42:22.062Z,47.30
2018-12-23T09:44:50.624Z,45.17
2018-12-23T09:47:19.149Z,53.07
2018-12-23T09:49:47.522Z,52.90
2018-12-23T09:52:15.862Z,60.53
2018-12-23T09:54:44.407Z,42.37
2018-12-23T09:57:13.886Z,46.83
2018-12-23T09:59:42.510Z,47.77
2018-12-23T10:02:11.211Z,59.77
2018-12-23T10:04:39.653Z,49.43
2018-12-23T10:07:08.084Z,50.20
2018-12-23T10:09:36.412Z,49.23
2018-12-23T10:12:04.890Z,50.13
2018-12-23T10:14:33.354Z,50.47
2018-12-23T10:17:01.680Z,49.37
2018-12-23T10:19:30.177Z,54.47
2018-12-23T10:21:58.510Z,53.07
2018-12-23T10:24:27.063Z,53.70
2018-12-23T10:26:55.458Z,49.57
2018-12-23T10:29:23.972Z,47.90
2018-12-23T10:31:52.285Z,51.67
2018-12-23T10:34:20.676Z,53.97
2018-12-23T10:36:48.967Z,52.30
2018-12-23T10:39:17.282Z,43.33
2018-12-23T10:41:45.606Z,46.57
2018-12-23T10:44:14.102Z,41.10
2018-12-23T10:46:42.460Z,44.93
2018-12-23T10:49:10.994Z,47.30
2018-12-23T10:51:39.420Z,47.67
2018-12-23T10:54:07.800Z,53.93
2018-12-23T10:56:36.324Z,49.87
2018-12-23T10:59:04.902Z,47.73
2018-12-23T11:01:33.198Z,51.80
2018-12-23T11:04:01.953Z,56.20
2018-12-23T11:06:30.511Z,48.07
2018-12-23T11:08:59.172Z,52.10
2018-12-23T11:11:27.670Z,51.57
2018-12-23T11:13:56.243Z,45.97
2018-12-23T11:16:24.704Z,47.90
2018-12-23T11:18:53.156Z,53.40
2018-12-23T11:21:22.061Z,48.50
2018-12-23T11:23:50.409Z,44.27
2018-12-23T11:26:18.750Z,43.97
2018-12-23T11:28:47.094Z,44.47
2018-12-23T11:31:15.563Z,41.77
2018-12-23T11:33:44.280Z,49.03
2018-12-23T11:36:12.800Z,49.60
2018-12-23T11:38:41.430Z,49.47
2018-12-23T11:41:09.931Z,47.63
2018-12-23T11:43:38.322Z,52.30
2018-12-23T11:46:06.654Z,45.90
2018-12-23T11:48:35.819Z,47.00
2018-12-23T11:51:04.855Z,49.87
2018-12-23T11:53:34.811Z,56.30
2018-12-23T11:56:03.478Z,54.73
2018-12-23T11:58:31.779Z,47.83
2018-12-23T12:01:00.110Z,50.00
2018-12-23T12:03:28.447Z,48.07
2018-12-23T12:05:56.749Z,53.77
2018-12-23T12:08:25.431Z,50.37
2018-12-23T12:10:53.876Z,55.80
2018-12-23T12:13:22.511Z,55.07
2018-12-23T12:15:51.190Z,50.57
2018-12-23T12:18:19.517Z,62.10
2018-12-23T12:20:47.936Z,56.33
2018-12-23T12:23:16.250Z,57.57
2018-12-23T12:25:44.579Z,59.67
2018-12-23T12:28:12.905Z,56.33
2018-12-23T12:30:44.391Z,63.30
2018-12-23T12:33:12.827Z,53.73
2018-12-23T12:35:41.352Z,58.43
2018-12-23T12:38:09.683Z,62.57
2018-12-23T12:40:38.038Z,55.13
2018-12-23T12:43:07.149Z,56.00
2018-12-23T12:45:35.650Z,47.93
2018-12-23T12:48:04.335Z,55.37
2018-12-23T12:50:32.826Z,51.57
2018-12-23T12:53:01.186Z,48.33
2018-12-23T12:55:29.867Z,50.67
2018-12-23T12:57:58.184Z,54.80
2018-12-23T13:00:26.530Z,56.23
2018-12-23T13:02:54.816Z,54.10
2018-12-23T13:05:23.253Z,51.00
2018-12-23T13:07:51.549Z,61.07
2018-12-23T13:10:19.849Z,57.17
2018-12-23T13:12:48.304Z,47.57
2018-12-23T13:15:16.818Z,57.30
2018-12-23T13:17:45.276Z,50.23
2018-12-23T13:20:13.787Z,46.20
2018-12-23T13:22:42.260Z,48.07
2018-12-23T13:25:10.657Z,53.33
2018-12-23T13:27:39.027Z,47.57
2018-12-23T13:30:07.918Z,53.13
2018-12-23T13:32:36.715Z,51.77
2018-12-23T13:35:05.255Z,55.17
2018-12-23T13:37:33.537Z,54.83
2018-12-23T13:40:12.842Z,46.47
2018-12-23T13:46:54.764Z,28.73
2018-12-23T13:49:48.224Z,28.00
2018-12-23T13:52:31.579Z,27.43
2018-12-23T13:55:40.670Z,22.33
2018-12-23T13:58:36.143Z,16.70
2018-12-23T14:01:39.396Z,13.37
2018-12-23T14:04:33.075Z,17.07
2018-12-23T14:07:42.325Z,15.07
2018-12-23T14:10:31.372Z,13.27
2018-12-23T14:13:01.203Z,18.27
2018-12-23T14:15:30.794Z,12.13
2018-12-23T14:18:00.531Z,15.77
2018-12-23T14:20:30.194Z,13.73
2018-12-23T14:23:00.259Z,13.33
2018-12-23T14:25:30.202Z,17.43
2018-12-23T14:28:00.035Z,17.33
2018-12-23T14:30:29.742Z,20.47
2018-12-23T14:32:59.425Z,18.80
2018-12-23T14:35:29.373Z,20.30
2018-12-23T14:37:58.960Z,18.03
2018-12-23T14:40:28.715Z,21.87
2018-12-23T14:42:58.444Z,24.40
2018-12-23T14:45:28.163Z,20.73
2018-12-23T14:47:57.865Z,21.07
2018-12-23T14:50:27.881Z,28.97
2018-12-23T14:52:57.703Z,24.67
2018-12-23T14:55:27.344Z,20.77
2018-12-23T14:57:57.281Z,23.03
2018-12-23T15:00:26.964Z,20.70
2018-12-23T15:02:56.701Z,22.40
2018-12-23T15:05:26.568Z,24.53
2018-12-23T15:07:56.255Z,21.50
2018-12-23T15:10:26.052Z,27.37
2018-12-23T15:12:55.836Z,22.83
2018-12-23T15:15:26.310Z,27.77
2018-12-23T15:17:56.163Z,29.63
2018-12-23T15:20:26.165Z,27.50
2018-12-23T15:22:56.015Z,29.00
2018-12-23T15:25:26.191Z,26.27
2018-12-23T15:27:55.796Z,25.47
2018-12-23T15:30:25.500Z,28.83
2018-12-23T15:32:55.305Z,28.60
2018-12-23T15:35:24.977Z,32.87
2018-12-23T15:37:54.666Z,30.90
2018-12-23T15:40:24.383Z,32.33
2018-12-23T15:42:54.064Z,34.07
2018-12-23T15:45:24.073Z,26.97
2018-12-23T15:47:53.791Z,30.60
2018-12-23T15:50:23.755Z,31.10
2018-12-23T15:52:53.617Z,31.00
2018-12-23T15:55:23.542Z,32.93
2018-12-23T15:57:53.308Z,26.07
2018-12-23T16:00:23.271Z,28.90
2018-12-23T16:02:53.268Z,30.27
2018-12-23T16:05:23.117Z,32.43
2018-12-23T16:07:52.864Z,36.27
2018-12-23T16:10:22.725Z,36.40
2018-12-23T16:12:52.484Z,38.07
2018-12-23T16:15:22.386Z,37.83
2018-12-23T16:17:52.314Z,41.53
2018-12-23T16:20:22.334Z,34.23
2018-12-23T16:22:52.278Z,41.20
2018-12-23T16:25:22.203Z,36.70
2018-12-23T16:27:52.348Z,39.97
2018-12-23T16:30:22.761Z,36.80
2018-12-23T16:32:52.492Z,36.80
2018-12-23T16:35:22.135Z,34.93
2018-12-23T16:37:51.813Z,37.10
2018-12-23T16:40:21.564Z,33.40
2018-12-23T16:42:51.662Z,33.93
2018-12-23T16:45:21.769Z,27.87
2018-12-23T16:47:51.459Z,34.33
2018-12-23T16:50:21.160Z,24.33
2018-12-23T16:52:50.981Z,23.97
2018-12-23T16:55:20.817Z,29.27
2018-12-23T16:57:50.478Z,35.73
2018-12-23T17:00:20.321Z,32.13
2018-12-23T17:02:50.076Z,34.10
2018-12-23T17:05:19.759Z,33.63
2018-12-23T17:07:49.740Z,28.37
2018-12-23T17:10:19.724Z,23.67
2018-12-23T17:12:49.519Z,23.10
2018-12-23T17:15:23.570Z,16.17
2018-12-23T17:17:53.482Z,14.17
2018-12-23T17:20:23.488Z,19.97
